sensor_id;sensor_type;location;lat;lon;timestamp;temperature;humidity
8487;DHT22;4280;50.534;8.708;2022-07-23T00:02:02;18.90;94.10
8487;DHT22;4280;50.534;8.708;2022-07-23T00:04:36;18.70;95.90
8487;DHT22;4280;50.534;8.708;2022-07-23T00:07:06;18.70;98.40
8487;DHT22;4280;50.534;8.708;2022-07-23T00:09:36;18.60;99.40
8487;DHT22;4280;50.534;8.708;2022-07-23T00:12:06;18.60;99.90
8487;DHT22;4280;50.534;8.708;2022-07-23T00:14:36;18.50;99.90
8487;DHT22;4280;50.534;8.708;2022-07-23T00:17:06;18.40;99.90
8487;DHT22;4280;50.534;8.708;2022-07-23T00:19:38;18.30;99.90
8487;DHT22;4280;50.534;8.708;2022-07-23T00:22:08;18.30;99.90
8487;DHT22;4280;50.534;8.708;2022-07-23T00:24:38;18.30;99.90
8487;DHT22;4280;50.534;8.708;2022-07-23T00:27:08;18.30;99.90
8487;DHT22;4280;50.534;8.708;2022-07-23T00:29:38;18.10;99.90
8487;DHT22;4280;50.534;8.708;2022-07-23T00:32:08;18.00;99.90
8487;DHT22;4280;50.534;8.708;2022-07-23T00:34:41;17.90;99.90
8487;DHT22;4280;50.534;8.708;2022-07-23T00:37:11;17.90;99.90
8487;DHT22;4280;50.534;8.708;2022-07-23T00:39:41;17.90;99.90
8487;DHT22;4280;50.534;8.708;2022-07-23T00:42:12;17.90;99.90
8487;DHT22;4280;50.534;8.708;2022-07-23T00:44:42;17.80;99.90
8487;DHT22;4280;50.534;8.708;2022-07-23T00:47:14;17.90;99.90
8487;DHT22;4280;50.534;8.708;2022-07-23T00:49:46;17.80;99.90
8487;DHT22;4280;50.534;8.708;2022-07-23T00:52:16;17.90;99.90
8487;DHT22;4280;50.534;8.708;2022-07-23T00:54:47;17.80;99.90
8487;DHT22;4280;50.534;8.708;2022-07-23T00:57:18;17.80;99.90
8487;DHT22;4280;50.534;8.708;2022-07-23T00:59:51;17.80;99.90
8487;DHT22;4280;50.534;8.708;2022-07-23T01:02:21;17.90;99.90
8487;DHT22;4280;50.534;8.708;2022-07-23T01:04:53;17.80;99.90
8487;DHT22;4280;50.534;8.708;2022-07-23T01:07:23;17.80;99.90
8487;DHT22;4280;50.534;8.708;2022-07-23T01:09:54;17.80;99.90
8487;DHT22;4280;50.534;8.708;2022-07-23T01:12:24;17.80;99.90
8487;DHT22;4280;50.534;8.708;2022-07-23T01:14:55;17.90;99.90
8487;DHT22;4280;50.534;8.708;2022-07-23T01:17:27;17.80;99.90
8487;DHT22;4280;50.534;8.708;2022-07-23T01:20:00;17.80;99.90
8487;DHT22;4280;50.534;8.708;2022-07-23T01:22:33;17.70;99.90
8487;DHT22;4280;50.534;8.708;2022-07-23T01:25:04;17.60;99.90
8487;DHT22;4280;50.534;8.708;2022-07-23T01:27:38;17.60;99.90
8487;DHT22;4280;50.534;8.708;2022-07-23T01:30:08;17.50;99.90
8487;DHT22;4280;50.534;8.708;2022-07-23T01:32:40;17.50;99.90
8487;DHT22;4280;50.534;8.708;2022-07-23T01:35:11;17.50;99.90
8487;DHT22;4280;50.534;8.708;2022-07-23T01:37:44;17.50;99.90
8487;DHT22;4280;50.534;8.708;2022-07-23T01:40:15;17.40;99.90
8487;DHT22;4280;50.534;8.708;2022-07-23T01:42:46;17.50;99.90
8487;DHT22;4280;50.534;8.708;2022-07-23T01:45:16;17.50;99.90
8487;DHT22;4280;50.534;8.708;2022-07-23T01:47:49;17.50;99.90
8487;DHT22;4280;50.534;8.708;2022-07-23T01:50:20;17.50;99.90
8487;DHT22;4280;50.534;8.708;2022-07-23T01:53:20;17.50;99.90
8487;DHT22;4280;50.534;8.708;2022-07-23T01:55:50;17.50;99.90
8487;DHT22;4280;50.534;8.708;2022-07-23T01:58:20;17.60;99.90
8487;DHT22;4280;50.534;8.708;2022-07-23T02:00:50;17.60;99.90
8487;DHT22;4280;50.534;8.708;2022-07-23T02:03:20;17.50;99.90
8487;DHT22;4280;50.534;8.708;2022-07-23T02:05:50;17.50;99.90
8487;DHT22;4280;50.534;8.708;2022-07-23T02:08:23;17.50;99.90
8487;DHT22;4280;50.534;8.708;2022-07-23T02:10:53;17.50;99.90
8487;DHT22;4280;50.534;8.708;2022-07-23T02:13:23;17.50;99.90
8487;DHT22;4280;50.534;8.708;2022-07-23T02:15:58;17.50;99.90
8487;DHT22;4280;50.534;8.708;2022-07-23T02:18:28;17.50;99.90
8487;DHT22;4280;50.534;8.708;2022-07-23T02:20:58;17.30;99.90
8487;DHT22;4280;50.534;8.708;2022-07-23T02:23:31;17.30;99.90
8487;DHT22;4280;50.534;8.708;2022-07-23T02:26:01;17.30;99.90
8487;DHT22;4280;50.534;8.708;2022-07-23T02:28:31;17.20;99.90
8487;DHT22;4280;50.534;8.708;2022-07-23T02:31:01;17.10;99.90
8487;DHT22;4280;50.534;8.708;2022-07-23T02:33:33;17.10;99.90
8487;DHT22;4280;50.534;8.708;2022-07-23T02:36:03;17.10;99.90
8487;DHT22;4280;50.534;8.708;2022-07-23T02:38:36;17.10;99.90
8487;DHT22;4280;50.534;8.708;2022-07-23T02:41:06;17.10;99.90
8487;DHT22;4280;50.534;8.708;2022-07-23T02:43:37;17.20;99.90
8487;DHT22;4280;50.534;8.708;2022-07-23T02:46:07;17.20;99.90
8487;DHT22;4280;50.534;8.708;2022-07-23T02:48:38;17.10;99.90
8487;DHT22;4280;50.534;8.708;2022-07-23T02:51:08;17.10;99.90
8487;DHT22;4280;50.534;8.708;2022-07-23T02:53:44;17.20;99.90
8487;DHT22;4280;50.534;8.708;2022-07-23T02:56:14;17.20;99.90
8487;DHT22;4280;50.534;8.708;2022-07-23T02:58:44;17.20;99.90
8487;DHT22;4280;50.534;8.708;2022-07-23T03:01:14;17.10;99.90
8487;DHT22;4280;50.534;8.708;2022-07-23T03:03:45;17.20;99.90
8487;DHT22;4280;50.534;8.708;2022-07-23T03:06:15;17.20;99.90
8487;DHT22;4280;50.534;8.708;2022-07-23T03:08:48;17.20;99.90
8487;DHT22;4280;50.534;8.708;2022-07-23T03:11:18;17.20;99.90
8487;DHT22;4280;50.534;8.708;2022-07-23T03:13:48;17.10;99.90
8487;DHT22;4280;50.534;8.708;2022-07-23T03:16:19;17.10;99.90
8487;DHT22;4280;50.534;8.708;2022-07-23T03:18:49;17.00;99.90
8487;DHT22;4280;50.534;8.708;2022-07-23T03:21:19;17.00;99.90
8487;DHT22;4280;50.534;8.708;2022-07-23T03:23:54;17.00;99.90
8487;DHT22;4280;50.534;8.708;2022-07-23T03:26:24;16.90;99.90
8487;DHT22;4280;50.534;8.708;2022-07-23T03:28:54;16.90;99.90
8487;DHT22;4280;50.534;8.708;2022-07-23T03:31:24;16.90;99.90
8487;DHT22;4280;50.534;8.708;2022-07-23T03:33:54;16.90;99.90
8487;DHT22;4280;50.534;8.708;2022-07-23T03:36:25;16.90;99.90
8487;DHT22;4280;50.534;8.708;2022-07-23T03:38:58;17.00;99.90
8487;DHT22;4280;50.534;8.708;2022-07-23T03:41:29;16.90;99.90
8487;DHT22;4280;50.534;8.708;2022-07-23T03:43:59;17.00;99.90
8487;DHT22;4280;50.534;8.708;2022-07-23T03:46:29;17.00;99.90
8487;DHT22;4280;50.534;8.708;2022-07-23T03:48:59;17.10;99.90
8487;DHT22;4280;50.534;8.708;2022-07-23T03:51:29;17.10;99.90
8487;DHT22;4280;50.534;8.708;2022-07-23T03:54:02;17.10;99.90
8487;DHT22;4280;50.534;8.708;2022-07-23T03:56:32;17.00;99.90
8487;DHT22;4280;50.534;8.708;2022-07-23T03:59:02;17.00;99.90
8487;DHT22;4280;50.534;8.708;2022-07-23T04:01:32;17.10;99.90
8487;DHT22;4280;50.534;8.708;2022-07-23T04:04:03;17.10;99.90
8487;DHT22;4280;50.534;8.708;2022-07-23T04:06:36;17.10;99.90
8487;DHT22;4280;50.534;8.708;2022-07-23T04:09:09;17.10;99.90
8487;DHT22;4280;50.534;8.708;2022-07-23T04:11:40;17.10;99.90
8487;DHT22;4280;50.534;8.708;2022-07-23T04:14:10;17.10;99.90
8487;DHT22;4280;50.534;8.708;2022-07-23T04:16:42;17.10;99.90
8487;DHT22;4280;50.534;8.708;2022-07-23T04:19:12;17.10;99.90
8487;DHT22;4280;50.534;8.708;2022-07-23T04:21:53;17.10;99.90
8487;DHT22;4280;50.534;8.708;2022-07-23T04:24:26;17.10;99.90
8487;DHT22;4280;50.534;8.708;2022-07-23T04:26:57;17.10;99.90
8487;DHT22;4280;50.534;8.708;2022-07-23T04:29:27;17.20;99.90
8487;DHT22;4280;50.534;8.708;2022-07-23T04:31:57;17.20;99.90
8487;DHT22;4280;50.534;8.708;2022-07-23T04:34:28;17.20;99.90
8487;DHT22;4280;50.534;8.708;2022-07-23T04:36:58;17.30;99.90
8487;DHT22;4280;50.534;8.708;2022-07-23T04:39:33;17.50;99.90
8487;DHT22;4280;50.534;8.708;2022-07-23T04:42:03;17.50;99.90
8487;DHT22;4280;50.534;8.708;2022-07-23T04:44:33;17.50;99.90
8487;DHT22;4280;50.534;8.708;2022-07-23T04:47:05;17.40;99.90
8487;DHT22;4280;50.534;8.708;2022-07-23T04:49:37;17.50;99.90
8487;DHT22;4280;50.534;8.708;2022-07-23T04:52:07;17.60;99.90
8487;DHT22;4280;50.534;8.708;2022-07-23T04:54:40;17.90;98.20
8487;DHT22;4280;50.534;8.708;2022-07-23T04:57:10;17.90;98.20
8487;DHT22;4280;50.534;8.708;2022-07-23T04:59:40;17.90;97.20
8487;DHT22;4280;50.534;8.708;2022-07-23T05:02:11;18.10;94.50
8487;DHT22;4280;50.534;8.708;2022-07-23T05:04:41;18.00;94.10
8487;DHT22;4280;50.534;8.708;2022-07-23T05:07:11;18.00;94.00
8487;DHT22;4280;50.534;8.708;2022-07-23T05:09:44;18.20;91.50
8487;DHT22;4280;50.534;8.708;2022-07-23T05:12:14;18.30;88.30
8487;DHT22;4280;50.534;8.708;2022-07-23T05:14:44;18.70;84.20
8487;DHT22;4280;50.534;8.708;2022-07-23T05:17:14;19.10;81.30
8487;DHT22;4280;50.534;8.708;2022-07-23T05:19:44;19.40;72.40
8487;DHT22;4280;50.534;8.708;2022-07-23T05:22:15;20.10;61.80
8487;DHT22;4280;50.534;8.708;2022-07-23T05:24:47;20.50;57.00
8487;DHT22;4280;50.534;8.708;2022-07-23T05:27:17;20.80;49.20
8487;DHT22;4280;50.534;8.708;2022-07-23T05:29:47;20.60;49.50
8487;DHT22;4280;50.534;8.708;2022-07-23T05:32:17;20.70;45.70
8487;DHT22;4280;50.534;8.708;2022-07-23T05:34:55;20.90;45.50
8487;DHT22;4280;50.534;8.708;2022-07-23T05:37:25;21.50;42.00
8487;DHT22;4280;50.534;8.708;2022-07-23T05:39:57;21.50;39.60
8487;DHT22;4280;50.534;8.708;2022-07-23T05:42:30;21.70;36.60
8487;DHT22;4280;50.534;8.708;2022-07-23T05:45:00;22.10;33.90
8487;DHT22;4280;50.534;8.708;2022-07-23T05:47:38;22.60;29.40
8487;DHT22;4280;50.534;8.708;2022-07-23T05:50:10;21.70;33.50
8487;DHT22;4280;50.534;8.708;2022-07-23T05:52:44;21.60;33.40
8487;DHT22;4280;50.534;8.708;2022-07-23T05:55:46;21.80;33.60
8487;DHT22;4280;50.534;8.708;2022-07-23T05:58:16;22.20;31.20
8487;DHT22;4280;50.534;8.708;2022-07-23T06:00:47;22.70;28.50
8487;DHT22;4280;50.534;8.708;2022-07-23T06:03:17;22.60;28.00
8487;DHT22;4280;50.534;8.708;2022-07-23T06:05:47;22.40;28.60
8487;DHT22;4280;50.534;8.708;2022-07-23T06:08:17;22.70;27.50
8487;DHT22;4280;50.534;8.708;2022-07-23T06:10:50;22.80;26.60
8487;DHT22;4280;50.534;8.708;2022-07-23T06:13:20;23.00;24.30
8487;DHT22;4280;50.534;8.708;2022-07-23T06:15:50;23.00;23.60
8487;DHT22;4280;50.534;8.708;2022-07-23T06:18:20;22.90;24.10
8487;DHT22;4280;50.534;8.708;2022-07-23T06:20:50;22.40;28.20
8487;DHT22;4280;50.534;8.708;2022-07-23T06:23:22;22.70;25.30
8487;DHT22;4280;50.534;8.708;2022-07-23T06:25:55;22.70;25.90
8487;DHT22;4280;50.534;8.708;2022-07-23T06:28:26;23.00;23.60
8487;DHT22;4280;50.534;8.708;2022-07-23T06:30:56;23.30;23.80
8487;DHT22;4280;50.534;8.708;2022-07-23T06:33:26;23.10;22.80
8487;DHT22;4280;50.534;8.708;2022-07-23T06:35:58;22.40;25.40
8487;DHT22;4280;50.534;8.708;2022-07-23T06:38:28;21.60;30.10
8487;DHT22;4280;50.534;8.708;2022-07-23T06:41:00;21.70;30.50
8487;DHT22;4280;50.534;8.708;2022-07-23T06:43:45;21.40;33.10
8487;DHT22;4280;50.534;8.708;2022-07-23T06:46:16;21.70;28.40
8487;DHT22;4280;50.534;8.708;2022-07-23T06:48:48;21.60;28.70
8487;DHT22;4280;50.534;8.708;2022-07-23T06:51:19;20.60;35.80
8487;DHT22;4280;50.534;8.708;2022-07-23T06:53:49;20.80;36.50
8487;DHT22;4280;50.534;8.708;2022-07-23T06:56:22;20.90;34.20
8487;DHT22;4280;50.534;8.708;2022-07-23T06:58:54;20.80;37.10
8487;DHT22;4280;50.534;8.708;2022-07-23T07:01:26;20.60;38.60
8487;DHT22;4280;50.534;8.708;2022-07-23T07:03:56;20.70;38.10
8487;DHT22;4280;50.534;8.708;2022-07-23T07:06:26;20.70;37.60
8487;DHT22;4280;50.534;8.708;2022-07-23T07:08:56;20.60;39.60
8487;DHT22;4280;50.534;8.708;2022-07-23T07:11:28;20.90;39.10
8487;DHT22;4280;50.534;8.708;2022-07-23T07:13:58;21.10;37.10
8487;DHT22;4280;50.534;8.708;2022-07-23T07:16:28;21.00;36.00
8487;DHT22;4280;50.534;8.708;2022-07-23T07:18:59;21.10;35.90
8487;DHT22;4280;50.534;8.708;2022-07-23T07:21:29;21.10;34.90
8487;DHT22;4280;50.534;8.708;2022-07-23T07:23:59;21.40;33.10
8487;DHT22;4280;50.534;8.708;2022-07-23T07:26:31;21.60;31.60
8487;DHT22;4280;50.534;8.708;2022-07-23T07:29:01;20.90;36.90
8487;DHT22;4280;50.534;8.708;2022-07-23T07:31:31;20.30;41.60
8487;DHT22;4280;50.534;8.708;2022-07-23T07:34:01;20.30;41.50
8487;DHT22;4280;50.534;8.708;2022-07-23T07:36:31;20.80;42.00
8487;DHT22;4280;50.534;8.708;2022-07-23T07:39:03;21.00;38.40
8487;DHT22;4280;50.534;8.708;2022-07-23T07:41:39;21.00;37.70
8487;DHT22;4280;50.534;8.708;2022-07-23T07:44:09;20.70;37.60
8487;DHT22;4280;50.534;8.708;2022-07-23T07:46:39;20.80;36.80
8487;DHT22;4280;50.534;8.708;2022-07-23T07:49:09;20.90;34.00
8487;DHT22;4280;50.534;8.708;2022-07-23T07:51:39;20.50;38.70
8487;DHT22;4280;50.534;8.708;2022-07-23T07:54:11;20.40;42.00
8487;DHT22;4280;50.534;8.708;2022-07-23T07:56:43;20.90;36.90
8487;DHT22;4280;50.534;8.708;2022-07-23T07:59:14;21.30;33.10
8487;DHT22;4280;50.534;8.708;2022-07-23T08:01:44;21.50;28.50
8487;DHT22;4280;50.534;8.708;2022-07-23T08:04:14;21.70;27.80
8487;DHT22;4280;50.534;8.708;2022-07-23T08:06:44;21.60;27.70
8487;DHT22;4280;50.534;8.708;2022-07-23T08:09:15;21.90;27.70
8487;DHT22;4280;50.534;8.708;2022-07-23T08:11:47;22.00;27.40
8487;DHT22;4280;50.534;8.708;2022-07-23T08:14:18;22.00;25.50
8487;DHT22;4280;50.534;8.708;2022-07-23T08:16:48;22.20;25.60
8487;DHT22;4280;50.534;8.708;2022-07-23T08:19:38;22.30;23.50
8487;DHT22;4280;50.534;8.708;2022-07-23T08:22:08;22.50;23.50
8487;DHT22;4280;50.534;8.708;2022-07-23T08:24:38;22.50;23.20
8487;DHT22;4280;50.534;8.708;2022-07-23T08:27:11;22.70;23.20
8487;DHT22;4280;50.534;8.708;2022-07-23T08:29:41;22.60;21.70
8487;DHT22;4280;50.534;8.708;2022-07-23T08:32:10;22.60;23.30
8487;DHT22;4280;50.534;8.708;2022-07-23T08:35:00;22.70;23.30
8487;DHT22;4280;50.534;8.708;2022-07-23T08:37:30;22.70;22.20
8487;DHT22;4280;50.534;8.708;2022-07-23T08:40:00;22.80;21.00
8487;DHT22;4280;50.534;8.708;2022-07-23T08:42:32;23.00;22.20
8487;DHT22;4280;50.534;8.708;2022-07-23T08:45:04;23.10;20.20
8487;DHT22;4280;50.534;8.708;2022-07-23T08:47:37;23.20;18.50
8487;DHT22;4280;50.534;8.708;2022-07-23T08:50:08;23.10;18.50
8487;DHT22;4280;50.534;8.708;2022-07-23T08:52:39;23.10;16.30
8487;DHT22;4280;50.534;8.708;2022-07-23T08:55:09;23.30;16.70
8487;DHT22;4280;50.534;8.708;2022-07-23T08:57:42;23.40;16.00
8487;DHT22;4280;50.534;8.708;2022-07-23T09:00:12;23.40;15.50
8487;DHT22;4280;50.534;8.708;2022-07-23T09:02:44;23.40;13.40
8487;DHT22;4280;50.534;8.708;2022-07-23T09:05:14;23.40;14.50
8487;DHT22;4280;50.534;8.708;2022-07-23T09:10:42;23.50;13.40
8487;DHT22;4280;50.534;8.708;2022-07-23T09:16:16;23.60;13.80
8487;DHT22;4280;50.534;8.708;2022-07-23T09:18:49;23.70;13.60
8487;DHT22;4280;50.534;8.708;2022-07-23T09:21:21;23.70;13.60
8487;DHT22;4280;50.534;8.708;2022-07-23T09:23:57;23.80;12.80
8487;DHT22;4280;50.534;8.708;2022-07-23T09:26:31;24.00;12.20
8487;DHT22;4280;50.534;8.708;2022-07-23T09:29:09;24.20;12.30
8487;DHT22;4280;50.534;8.708;2022-07-23T09:31:42;24.30;11.30
8487;DHT22;4280;50.534;8.708;2022-07-23T09:34:18;24.30;10.30
8487;DHT22;4280;50.534;8.708;2022-07-23T09:36:51;24.40;9.60
8487;DHT22;4280;50.534;8.708;2022-07-23T09:39:24;24.30;10.20
8487;DHT22;4280;50.534;8.708;2022-07-23T09:41:56;24.50;10.50
8487;DHT22;4280;50.534;8.708;2022-07-23T09:44:29;24.70;8.90
8487;DHT22;4280;50.534;8.708;2022-07-23T09:46:59;24.90;6.10
8487;DHT22;4280;50.534;8.708;2022-07-23T09:49:30;25.10;6.80
8487;DHT22;4280;50.534;8.708;2022-07-23T09:52:00;25.40;6.20
8487;DHT22;4280;50.534;8.708;2022-07-23T09:54:31;25.70;4.00
8487;DHT22;4280;50.534;8.708;2022-07-23T09:57:04;25.60;3.90
8487;DHT22;4280;50.534;8.708;2022-07-23T09:59:46;25.80;4.10
8487;DHT22;4280;50.534;8.708;2022-07-23T10:02:19;25.60;3.90
8487;DHT22;4280;50.534;8.708;2022-07-23T10:05:18;25.50;3.60
8487;DHT22;4280;50.534;8.708;2022-07-23T10:08:10;25.40;3.80
8487;DHT22;4280;50.534;8.708;2022-07-23T10:10:59;25.30;3.80
8487;DHT22;4280;50.534;8.708;2022-07-23T10:13:49;24.70;5.50
8487;DHT22;4280;50.534;8.708;2022-07-23T10:16:33;24.40;6.40
8487;DHT22;4280;50.534;8.708;2022-07-23T10:19:05;24.40;8.40
8487;DHT22;4280;50.534;8.708;2022-07-23T10:21:37;24.70;7.00
8487;DHT22;4280;50.534;8.708;2022-07-23T10:24:13;24.90;7.00
8487;DHT22;4280;50.534;8.708;2022-07-23T10:26:50;25.10;5.10
8487;DHT22;4280;50.534;8.708;2022-07-23T10:29:27;25.50;3.90
8487;DHT22;4280;50.534;8.708;2022-07-23T10:32:20;25.80;4.00
8487;DHT22;4280;50.534;8.708;2022-07-23T10:34:58;26.00;4.10
8487;DHT22;4280;50.534;8.708;2022-07-23T10:37:35;25.40;6.40
8487;DHT22;4280;50.534;8.708;2022-07-23T10:40:11;25.20;6.60
8487;DHT22;4280;50.534;8.708;2022-07-23T10:42:44;25.20;7.10
8487;DHT22;4280;50.534;8.708;2022-07-23T10:48:14;25.70;5.10
8487;DHT22;4280;50.534;8.708;2022-07-23T10:50:45;25.40;5.00
8487;DHT22;4280;50.534;8.708;2022-07-23T10:59:19;25.00;6.70
8487;DHT22;4280;50.534;8.708;2022-07-23T11:01:50;25.20;5.60
8487;DHT22;4280;50.534;8.708;2022-07-23T11:04:23;25.30;5.90
8487;DHT22;4280;50.534;8.708;2022-07-23T11:07:19;25.80;4.10
8487;DHT22;4280;50.534;8.708;2022-07-23T11:09:49;25.90;4.10
8487;DHT22;4280;50.534;8.708;2022-07-23T11:15:07;26.40;1.50
8487;DHT22;4280;50.534;8.708;2022-07-23T11:17:39;26.50;2.40
8487;DHT22;4280;50.534;8.708;2022-07-23T11:20:30;26.90;3.00
8487;DHT22;4280;50.534;8.708;2022-07-23T11:23:00;26.80;1.90
8487;DHT22;4280;50.534;8.708;2022-07-23T11:25:32;26.90;1.00
8487;DHT22;4280;50.534;8.708;2022-07-23T11:28:17;26.40;1.80
8487;DHT22;4280;50.534;8.708;2022-07-23T11:30:52;26.30;1.80
8487;DHT22;4280;50.534;8.708;2022-07-23T11:33:23;26.00;3.70
8487;DHT22;4280;50.534;8.708;2022-07-23T11:36:02;25.90;4.10
8487;DHT22;4280;50.534;8.708;2022-07-23T11:38:33;26.50;2.20
8487;DHT22;4280;50.534;8.708;2022-07-23T11:41:03;27.10;1.00
8487;DHT22;4280;50.534;8.708;2022-07-23T11:43:36;27.60;1.00
8487;DHT22;4280;50.534;8.708;2022-07-23T11:46:09;27.80;1.00
8487;DHT22;4280;50.534;8.708;2022-07-23T11:48:39;28.10;1.00
8487;DHT22;4280;50.534;8.708;2022-07-23T11:51:12;27.30;1.00
8487;DHT22;4280;50.534;8.708;2022-07-23T11:53:56;27.00;1.00
8487;DHT22;4280;50.534;8.708;2022-07-23T11:56:35;26.60;1.10
8487;DHT22;4280;50.534;8.708;2022-07-23T11:59:05;26.60;1.30
8487;DHT22;4280;50.534;8.708;2022-07-23T12:01:35;27.00;1.00
8487;DHT22;4280;50.534;8.708;2022-07-23T12:04:06;27.40;1.00
8487;DHT22;4280;50.534;8.708;2022-07-23T12:06:40;27.10;1.00
8487;DHT22;4280;50.534;8.708;2022-07-23T12:09:13;26.90;1.00
8487;DHT22;4280;50.534;8.708;2022-07-23T12:11:56;27.00;1.00
8487;DHT22;4280;50.534;8.708;2022-07-23T12:14:26;26.90;1.00
8487;DHT22;4280;50.534;8.708;2022-07-23T12:17:08;26.80;1.00
8487;DHT22;4280;50.534;8.708;2022-07-23T12:19:39;27.00;1.00
8487;DHT22;4280;50.534;8.708;2022-07-23T12:22:11;27.50;1.00
8487;DHT22;4280;50.534;8.708;2022-07-23T12:24:52;27.60;1.00
8487;DHT22;4280;50.534;8.708;2022-07-23T12:27:22;27.60;1.00
8487;DHT22;4280;50.534;8.708;2022-07-23T12:29:53;27.10;1.00
8487;DHT22;4280;50.534;8.708;2022-07-23T12:32:25;26.30;1.00
8487;DHT22;4280;50.534;8.708;2022-07-23T12:35:04;26.30;1.00
8487;DHT22;4280;50.534;8.708;2022-07-23T12:37:38;26.50;1.00
8487;DHT22;4280;50.534;8.708;2022-07-23T12:40:20;26.60;1.00
8487;DHT22;4280;50.534;8.708;2022-07-23T12:42:58;26.60;1.00
8487;DHT22;4280;50.534;8.708;2022-07-23T12:45:42;26.80;1.00
8487;DHT22;4280;50.534;8.708;2022-07-23T12:48:21;26.50;1.00
8487;DHT22;4280;50.534;8.708;2022-07-23T12:50:56;26.60;1.00
8487;DHT22;4280;50.534;8.708;2022-07-23T12:53:30;26.80;1.00
8487;DHT22;4280;50.534;8.708;2022-07-23T12:56:04;27.10;1.00
8487;DHT22;4280;50.534;8.708;2022-07-23T12:58:45;27.50;1.00
8487;DHT22;4280;50.534;8.708;2022-07-23T13:01:25;27.50;1.00
8487;DHT22;4280;50.534;8.708;2022-07-23T13:04:00;27.90;1.00
8487;DHT22;4280;50.534;8.708;2022-07-23T13:06:36;27.60;1.00
8487;DHT22;4280;50.534;8.708;2022-07-23T13:09:12;27.80;1.00
8487;DHT22;4280;50.534;8.708;2022-07-23T13:11:44;27.90;1.00
8487;DHT22;4280;50.534;8.708;2022-07-23T13:14:17;27.90;1.00
8487;DHT22;4280;50.534;8.708;2022-07-23T13:16:48;27.60;1.00
8487;DHT22;4280;50.534;8.708;2022-07-23T13:19:21;28.00;1.00
8487;DHT22;4280;50.534;8.708;2022-07-23T13:21:54;28.40;1.00
8487;DHT22;4280;50.534;8.708;2022-07-23T13:24:26;28.30;1.00
8487;DHT22;4280;50.534;8.708;2022-07-23T13:26:56;28.00;1.00
8487;DHT22;4280;50.534;8.708;2022-07-23T13:29:27;28.20;1.00
8487;DHT22;4280;50.534;8.708;2022-07-23T13:31:56;28.30;1.00
8487;DHT22;4280;50.534;8.708;2022-07-23T13:34:26;28.40;1.00
8487;DHT22;4280;50.534;8.708;2022-07-23T13:36:56;28.40;1.00
8487;DHT22;4280;50.534;8.708;2022-07-23T13:39:29;28.80;1.00
8487;DHT22;4280;50.534;8.708;2022-07-23T13:42:03;28.80;1.00
8487;DHT22;4280;50.534;8.708;2022-07-23T13:44:33;28.50;1.00
8487;DHT22;4280;50.534;8.708;2022-07-23T13:47:03;28.20;1.00
8487;DHT22;4280;50.534;8.708;2022-07-23T13:49:33;28.50;1.00
8487;DHT22;4280;50.534;8.708;2022-07-23T13:52:03;28.50;1.00
8487;DHT22;4280;50.534;8.708;2022-07-23T13:54:37;28.10;1.00
8487;DHT22;4280;50.534;8.708;2022-07-23T13:57:07;28.50;1.00
8487;DHT22;4280;50.534;8.708;2022-07-23T13:59:38;28.80;1.00
8487;DHT22;4280;50.534;8.708;2022-07-23T14:02:09;28.90;1.00
8487;DHT22;4280;50.534;8.708;2022-07-23T14:04:47;28.80;1.00
8487;DHT22;4280;50.534;8.708;2022-07-23T14:07:17;28.80;1.00
8487;DHT22;4280;50.534;8.708;2022-07-23T14:09:50;28.90;1.00
8487;DHT22;4280;50.534;8.708;2022-07-23T14:12:21;28.90;1.00
8487;DHT22;4280;50.534;8.708;2022-07-23T14:14:53;29.00;1.00
8487;DHT22;4280;50.534;8.708;2022-07-23T14:17:23;28.80;1.00
8487;DHT22;4280;50.534;8.708;2022-07-23T14:19:55;28.60;1.00
8487;DHT22;4280;50.534;8.708;2022-07-23T14:22:27;28.60;1.00
8487;DHT22;4280;50.534;8.708;2022-07-23T14:25:00;28.60;1.00
8487;DHT22;4280;50.534;8.708;2022-07-23T14:27:30;28.70;1.00
8487;DHT22;4280;50.534;8.708;2022-07-23T14:30:02;29.00;1.00
8487;DHT22;4280;50.534;8.708;2022-07-23T14:32:34;29.10;1.00
8487;DHT22;4280;50.534;8.708;2022-07-23T14:35:04;28.80;1.00
8487;DHT22;4280;50.534;8.708;2022-07-23T14:37:39;28.50;1.00
8487;DHT22;4280;50.534;8.708;2022-07-23T14:40:12;28.80;1.00
8487;DHT22;4280;50.534;8.708;2022-07-23T14:42:42;29.00;1.00
8487;DHT22;4280;50.534;8.708;2022-07-23T14:45:12;28.90;1.00
8487;DHT22;4280;50.534;8.708;2022-07-23T14:47:42;28.80;1.00
8487;DHT22;4280;50.534;8.708;2022-07-23T14:50:13;29.20;1.00
8487;DHT22;4280;50.534;8.708;2022-07-23T14:52:43;28.80;1.00
8487;DHT22;4280;50.534;8.708;2022-07-23T14:55:16;28.60;1.00
8487;DHT22;4280;50.534;8.708;2022-07-23T14:57:46;28.30;1.00
8487;DHT22;4280;50.534;8.708;2022-07-23T15:00:17;28.20;1.00
8487;DHT22;4280;50.534;8.708;2022-07-23T15:02:48;28.20;1.00
8487;DHT22;4280;50.534;8.708;2022-07-23T15:05:19;28.00;1.00
8487;DHT22;4280;50.534;8.708;2022-07-23T15:07:51;27.80;1.00
8487;DHT22;4280;50.534;8.708;2022-07-23T15:10:29;27.90;1.00
8487;DHT22;4280;50.534;8.708;2022-07-23T15:13:00;27.70;1.00
8487;DHT22;4280;50.534;8.708;2022-07-23T15:15:30;27.80;1.00
8487;DHT22;4280;50.534;8.708;2022-07-23T15:18:00;27.80;1.00
8487;DHT22;4280;50.534;8.708;2022-07-23T15:20:33;27.70;1.00
8487;DHT22;4280;50.534;8.708;2022-07-23T15:23:04;27.60;1.00
8487;DHT22;4280;50.534;8.708;2022-07-23T15:25:38;28.00;1.00
8487;DHT22;4280;50.534;8.708;2022-07-23T15:28:09;28.40;1.00
8487;DHT22;4280;50.534;8.708;2022-07-23T15:30:40;28.10;1.00
8487;DHT22;4280;50.534;8.708;2022-07-23T15:33:10;28.20;1.00
8487;DHT22;4280;50.534;8.708;2022-07-23T15:35:40;28.10;1.00
8487;DHT22;4280;50.534;8.708;2022-07-23T15:38:10;27.90;1.00
8487;DHT22;4280;50.534;8.708;2022-07-23T15:40:45;27.80;1.00
8487;DHT22;4280;50.534;8.708;2022-07-23T15:43:15;27.40;1.00
8487;DHT22;4280;50.534;8.708;2022-07-23T15:45:47;27.30;1.00
8487;DHT22;4280;50.534;8.708;2022-07-23T15:48:17;27.70;1.00
8487;DHT22;4280;50.534;8.708;2022-07-23T15:50:48;28.00;1.00
8487;DHT22;4280;50.534;8.708;2022-07-23T15:53:18;27.60;1.00
8487;DHT22;4280;50.534;8.708;2022-07-23T15:55:51;27.90;1.00
8487;DHT22;4280;50.534;8.708;2022-07-23T15:58:21;28.10;1.00
8487;DHT22;4280;50.534;8.708;2022-07-23T16:00:51;28.20;1.00
8487;DHT22;4280;50.534;8.708;2022-07-23T16:03:21;28.10;1.00
8487;DHT22;4280;50.534;8.708;2022-07-23T16:05:51;28.40;1.00
8487;DHT22;4280;50.534;8.708;2022-07-23T16:08:21;28.20;1.00
8487;DHT22;4280;50.534;8.708;2022-07-23T16:10:53;28.30;1.00
8487;DHT22;4280;50.534;8.708;2022-07-23T16:13:25;28.10;1.00
8487;DHT22;4280;50.534;8.708;2022-07-23T16:15:56;27.90;1.00
8487;DHT22;4280;50.534;8.708;2022-07-23T16:18:28;27.90;1.00
8487;DHT22;4280;50.534;8.708;2022-07-23T16:20:58;27.80;1.00
8487;DHT22;4280;50.534;8.708;2022-07-23T16:23:32;27.80;1.00
8487;DHT22;4280;50.534;8.708;2022-07-23T16:26:05;28.00;1.00
8487;DHT22;4280;50.534;8.708;2022-07-23T16:28:35;27.80;1.00
8487;DHT22;4280;50.534;8.708;2022-07-23T16:31:05;27.90;1.00
8487;DHT22;4280;50.534;8.708;2022-07-23T16:33:35;28.00;1.00
8487;DHT22;4280;50.534;8.708;2022-07-23T16:36:06;27.80;1.00
8487;DHT22;4280;50.534;8.708;2022-07-23T16:38:37;28.10;1.00
8487;DHT22;4280;50.534;8.708;2022-07-23T16:41:09;28.30;1.00
8487;DHT22;4280;50.534;8.708;2022-07-23T16:43:39;28.40;1.00
8487;DHT22;4280;50.534;8.708;2022-07-23T16:46:10;28.60;1.00
8487;DHT22;4280;50.534;8.708;2022-07-23T16:48:40;29.00;1.00
8487;DHT22;4280;50.534;8.708;2022-07-23T16:51:10;28.80;1.00
8487;DHT22;4280;50.534;8.708;2022-07-23T16:53:40;28.70;1.00
8487;DHT22;4280;50.534;8.708;2022-07-23T16:56:12;28.70;1.00
8487;DHT22;4280;50.534;8.708;2022-07-23T16:58:43;28.50;1.00
8487;DHT22;4280;50.534;8.708;2022-07-23T17:01:12;28.50;1.00